sensor_id;sensor_type;location;lat;lon;timestamp;pressure;altitude;pressure_sealevel;temperature;humidity
17785;BME280;9016;53.582;10.062;2023-03-05T00:01:39;101615.13;;;6.13;61.35
17785;BME280;9016;53.582;10.062;2023-03-05T00:04:11;101624.25;;;6.01;61.05
17785;BME280;9016;53.582;10.062;2023-03-05T00:06:40;101611.81;;;6.05;60.65
17785;BME280;9016;53.582;10.062;2023-03-05T00:09:10;101611.53;;;6.16;60.06
17785;BME280;9016;53.582;10.062;2023-03-05T00:11:38;101603.63;;;6.14;60.22
17785;BME280;9016;53.582;10.062;2023-03-05T00:14:06;101603.50;;;6.19;59.66
17785;BME280;9016;53.582;10.062;2023-03-05T00:16:34;101602.50;;;6.23;59.33
17785;BME280;9016;53.582;10.062;2023-03-05T00:19:02;101593.78;;;6.19;59.18
17785;BME280;9016;53.582;10.062;2023-03-05T00:21:33;101592.06;;;6.17;58.61
17785;BME280;9016;53.582;10.062;2023-03-05T00:24:02;101586.06;;;6.12;59.17
17785;BME280;9016;53.582;10.062;2023-03-05T00:26:35;101588.66;;;6.13;58.36
17785;BME280;9016;53.582;10.062;2023-03-05T00:29:06;101582.84;;;6.00;58.40
17785;BME280;9016;53.582;10.062;2023-03-05T00:31:36;101584.78;;;5.94;58.36
17785;BME280;9016;53.582;10.062;2023-03-05T00:34:06;101589.94;;;5.98;57.93
17785;BME280;9016;53.582;10.062;2023-03-05T00:36:38;101594.81;;;5.81;57.86
17785;BME280;9016;53.582;10.062;2023-03-05T00:39:06;101586.09;;;5.78;58.36
17785;BME280;9016;53.582;10.062;2023-03-05T00:41:35;101584.28;;;5.80;58.51
17785;BME280;9016;53.582;10.062;2023-03-05T00:44:06;101584.44;;;5.74;58.93
17785;BME280;9016;53.582;10.062;2023-03-05T00:46:35;101581.88;;;5.71;60.85
17785;BME280;9016;53.582;10.062;2023-03-05T00:49:03;101584.63;;;5.66;62.75
17785;BME280;9016;53.582;10.062;2023-03-05T00:51:32;101574.94;;;5.67;63.89
17785;BME280;9016;53.582;10.062;2023-03-05T00:54:00;101566.94;;;5.70;65.00
17785;BME280;9016;53.582;10.062;2023-03-05T00:56:28;101560.31;;;5.54;66.26
17785;BME280;9016;53.582;10.062;2023-03-05T00:58:58;101564.56;;;5.59;66.88
17785;BME280;9016;53.582;10.062;2023-03-05T01:01:26;101563.56;;;5.63;67.09
17785;BME280;9016;53.582;10.062;2023-03-05T01:03:54;101562.75;;;5.61;67.25
17785;BME280;9016;53.582;10.062;2023-03-05T01:06:24;101567.50;;;5.49;67.68
17785;BME280;9016;53.582;10.062;2023-03-05T01:08:52;101566.63;;;5.48;68.03
17785;BME280;9016;53.582;10.062;2023-03-05T01:11:20;101561.47;;;5.44;69.08
17785;BME280;9016;53.582;10.062;2023-03-05T01:13:48;101558.53;;;5.54;69.67
17785;BME280;9016;53.582;10.062;2023-03-05T01:16:17;101553.50;;;5.45;70.60
17785;BME280;9016;53.582;10.062;2023-03-05T01:18:45;101548.16;;;5.47;71.21
17785;BME280;9016;53.582;10.062;2023-03-05T01:21:13;101551.53;;;5.52;71.80
17785;BME280;9016;53.582;10.062;2023-03-05T01:23:41;101544.28;;;5.60;71.65
17785;BME280;9016;53.582;10.062;2023-03-05T01:26:09;101541.09;;;5.47;72.90
17785;BME280;9016;53.582;10.062;2023-03-05T01:28:37;101543.66;;;5.50;72.75
17785;BME280;9016;53.582;10.062;2023-03-05T01:31:07;101537.28;;;5.59;72.12
17785;BME280;9016;53.582;10.062;2023-03-05T01:33:36;101539.16;;;5.54;73.01
17785;BME280;9016;53.582;10.062;2023-03-05T01:36:09;101548.00;;;5.53;73.74
17785;BME280;9016;53.582;10.062;2023-03-05T01:38:39;101536.66;;;5.49;74.53
17785;BME280;9016;53.582;10.062;2023-03-05T01:41:07;101535.97;;;5.41;74.19
17785;BME280;9016;53.582;10.062;2023-03-05T01:43:36;101526.34;;;5.39;74.65
17785;BME280;9016;53.582;10.062;2023-03-05T01:46:32;101521.97;;;5.38;75.78
17785;BME280;9016;53.582;10.062;2023-03-05T01:49:21;101516.59;;;5.41;75.43
17785;BME280;9016;53.582;10.062;2023-03-05T01:51:58;101515.97;;;5.33;75.05
17785;BME280;9016;53.582;10.062;2023-03-05T01:54:31;101515.13;;;5.31;76.17
17785;BME280;9016;53.582;10.062;2023-03-05T01:57:04;101517.69;;;5.34;76.34
17785;BME280;9016;53.582;10.062;2023-03-05T01:59:33;101504.56;;;5.31;76.86
17785;BME280;9016;53.582;10.062;2023-03-05T02:02:01;101512.09;;;5.46;76.04
17785;BME280;9016;53.582;10.062;2023-03-05T02:04:37;101512.34;;;5.37;76.16
17785;BME280;9016;53.582;10.062;2023-03-05T02:07:08;101512.19;;;5.41;76.69
17785;BME280;9016;53.582;10.062;2023-03-05T02:09:38;101501.66;;;5.40;77.27
17785;BME280;9016;53.582;10.062;2023-03-05T02:12:07;101499.03;;;5.40;77.35
17785;BME280;9016;53.582;10.062;2023-03-05T02:14:37;101494.94;;;5.28;77.77
17785;BME280;9016;53.582;10.062;2023-03-05T02:17:06;101486.88;;;5.33;78.73
17785;BME280;9016;53.582;10.062;2023-03-05T02:19:47;101488.72;;;5.31;77.73
17785;BME280;9016;53.582;10.062;2023-03-05T02:22:18;101475.84;;;5.17;77.79
17785;BME280;9016;53.582;10.062;2023-03-05T02:24:47;101474.91;;;5.20;77.95
17785;BME280;9016;53.582;10.062;2023-03-05T02:27:15;101470.56;;;5.17;77.36
17785;BME280;9016;53.582;10.062;2023-03-05T02:29:45;101469.63;;;5.20;78.17
17785;BME280;9016;53.582;10.062;2023-03-05T02:32:13;101475.75;;;5.22;78.05
17785;BME280;9016;53.582;10.062;2023-03-05T02:34:41;101474.56;;;5.32;77.53
17785;BME280;9016;53.582;10.062;2023-03-05T02:37:09;101469.63;;;5.20;77.44
17785;BME280;9016;53.582;10.062;2023-03-05T02:39:39;101469.78;;;5.14;78.47
17785;BME280;9016;53.582;10.062;2023-03-05T02:42:07;101457.97;;;5.27;77.64
17785;BME280;9016;53.582;10.062;2023-03-05T02:44:35;101460.38;;;5.36;77.74
17785;BME280;9016;53.582;10.062;2023-03-05T02:47:03;101464.00;;;5.32;76.23
17785;BME280;9016;53.582;10.062;2023-03-05T02:49:32;101472.06;;;5.27;76.68
17785;BME280;9016;53.582;10.062;2023-03-05T02:52:00;101466.75;;;5.29;76.87
17785;BME280;9016;53.582;10.062;2023-03-05T02:54:28;101463.22;;;5.28;77.21
17785;BME280;9016;53.582;10.062;2023-03-05T02:56:57;101462.53;;;5.22;76.66
17785;BME280;9016;53.582;10.062;2023-03-05T02:59:25;101458.34;;;5.13;78.18
17785;BME280;9016;53.582;10.062;2023-03-05T03:01:53;101459.91;;;5.22;78.50
17785;BME280;9016;53.582;10.062;2023-03-05T03:04:21;101454.41;;;5.28;78.17
17785;BME280;9016;53.582;10.062;2023-03-05T03:06:49;101446.28;;;5.37;77.91
17785;BME280;9016;53.582;10.062;2023-03-05T03:09:17;101439.13;;;5.40;77.11
17785;BME280;9016;53.582;10.062;2023-03-05T03:11:45;101435.03;;;5.29;77.39
17785;BME280;9016;53.582;10.062;2023-03-05T03:14:14;101439.38;;;5.31;78.52
17785;BME280;9016;53.582;10.062;2023-03-05T03:16:42;101429.84;;;5.24;77.93
17785;BME280;9016;53.582;10.062;2023-03-05T03:19:10;101424.38;;;5.32;77.90
17785;BME280;9016;53.582;10.062;2023-03-05T03:21:38;101412.28;;;5.23;77.25
17785;BME280;9016;53.582;10.062;2023-03-05T03:24:07;101414.97;;;5.22;77.40
17785;BME280;9016;53.582;10.062;2023-03-05T03:26:37;101406.78;;;5.31;77.72
17785;BME280;9016;53.582;10.062;2023-03-05T03:29:05;101414.00;;;5.26;76.96
17785;BME280;9016;53.582;10.062;2023-03-05T03:31:35;101426.28;;;5.27;77.19
17785;BME280;9016;53.582;10.062;2023-03-05T03:34:05;101420.13;;;5.26;77.04
17785;BME280;9016;53.582;10.062;2023-03-05T03:36:33;101420.53;;;5.13;77.53
17785;BME280;9016;53.582;10.062;2023-03-05T03:39:02;101408.91;;;5.18;77.33
17785;BME280;9016;53.582;10.062;2023-03-05T03:41:31;101400.13;;;5.18;76.50
17785;BME280;9016;53.582;10.062;2023-03-05T03:43:59;101401.06;;;5.15;76.41
17785;BME280;9016;53.582;10.062;2023-03-05T03:46:28;101407.06;;;5.22;76.28
17785;BME280;9016;53.582;10.062;2023-03-05T03:48:58;101404.94;;;5.02;76.03
17785;BME280;9016;53.582;10.062;2023-03-05T03:51:26;101403.22;;;5.01;76.93
17785;BME280;9016;53.582;10.062;2023-03-05T03:53:54;101397.09;;;4.99;76.39
17785;BME280;9016;53.582;10.062;2023-03-05T03:56:22;101392.91;;;4.92;75.70
17785;BME280;9016;53.582;10.062;2023-03-05T03:58:51;101395.16;;;4.73;76.37
17785;BME280;9016;53.582;10.062;2023-03-05T04:01:20;101391.19;;;4.57;77.55
17785;BME280;9016;53.582;10.062;2023-03-05T04:03:48;101399.13;;;4.56;78.35
17785;BME280;9016;53.582;10.062;2023-03-05T04:06:17;101390.84;;;4.69;78.08
17785;BME280;9016;53.582;10.062;2023-03-05T04:08:45;101385.38;;;4.77;77.27
17785;BME280;9016;53.582;10.062;2023-03-05T04:11:13;101394.25;;;4.74;77.03
17785;BME280;9016;53.582;10.062;2023-03-05T04:13:44;101391.28;;;4.86;76.37
17785;BME280;9016;53.582;10.062;2023-03-05T04:16:13;101378.81;;;4.91;76.24
17785;BME280;9016;53.582;10.062;2023-03-05T04:18:41;101384.97;;;4.92;76.05
17785;BME280;9016;53.582;10.062;2023-03-05T04:21:10;101382.28;;;4.93;76.50
17785;BME280;9016;53.582;10.062;2023-03-05T04:23:40;101390.25;;;4.92;75.26
17785;BME280;9016;53.582;10.062;2023-03-05T04:26:08;101378.97;;;4.85;75.60
17785;BME280;9016;53.582;10.062;2023-03-05T04:28:36;101389.34;;;4.93;75.92
17785;BME280;9016;53.582;10.062;2023-03-05T04:31:04;101387.41;;;4.99;75.90
17785;BME280;9016;53.582;10.062;2023-03-05T04:33:32;101380.09;;;5.09;75.56
17785;BME280;9016;53.582;10.062;2023-03-05T04:36:00;101373.00;;;5.11;75.08
17785;BME280;9016;53.582;10.062;2023-03-05T04:38:28;101371.16;;;5.15;74.82
17785;BME280;9016;53.582;10.062;2023-03-05T04:40:58;101372.41;;;5.01;74.70
17785;BME280;9016;53.582;10.062;2023-03-05T04:43:41;101367.97;;;5.02;74.88
17785;BME280;9016;53.582;10.062;2023-03-05T04:46:09;101371.56;;;4.99;74.91
17785;BME280;9016;53.582;10.062;2023-03-05T04:48:37;101361.13;;;4.95;75.63
17785;BME280;9016;53.582;10.062;2023-03-05T04:51:05;101362.88;;;4.96;75.50
17785;BME280;9016;53.582;10.062;2023-03-05T04:53:33;101348.66;;;5.00;75.44
17785;BME280;9016;53.582;10.062;2023-03-05T04:56:03;101353.69;;;5.09;75.42
17785;BME280;9016;53.582;10.062;2023-03-05T04:58:31;101339.41;;;5.16;74.26
17785;BME280;9016;53.582;10.062;2023-03-05T05:01:00;101343.97;;;5.10;74.78
17785;BME280;9016;53.582;10.062;2023-03-05T05:03:29;101340.44;;;5.11;74.10
17785;BME280;9016;53.582;10.062;2023-03-05T05:05:58;101333.16;;;5.19;74.96
17785;BME280;9016;53.582;10.062;2023-03-05T05:08:27;101330.41;;;5.23;73.52
17785;BME280;9016;53.582;10.062;2023-03-05T05:10:56;101336.78;;;5.16;75.41
17785;BME280;9016;53.582;10.062;2023-03-05T05:13:26;101329.84;;;5.12;76.12
17785;BME280;9016;53.582;10.062;2023-03-05T05:15:54;101323.41;;;5.21;75.05
17785;BME280;9016;53.582;10.062;2023-03-05T05:18:23;101327.59;;;5.28;74.78
17785;BME280;9016;53.582;10.062;2023-03-05T05:20:51;101324.28;;;5.21;74.86
17785;BME280;9016;53.582;10.062;2023-03-05T05:23:19;101322.53;;;5.22;74.31
17785;BME280;9016;53.582;10.062;2023-03-05T05:25:55;101329.56;;;5.21;74.79
17785;BME280;9016;53.582;10.062;2023-03-05T05:28:26;101326.31;;;5.12;75.46
17785;BME280;9016;53.582;10.062;2023-03-05T05:30:54;101314.75;;;5.16;76.09
17785;BME280;9016;53.582;10.062;2023-03-05T05:33:22;101311.91;;;5.23;75.39
17785;BME280;9016;53.582;10.062;2023-03-05T05:35:51;101312.94;;;5.18;74.83
17785;BME280;9016;53.582;10.062;2023-03-05T05:38:19;101312.78;;;5.24;75.09
17785;BME280;9016;53.582;10.062;2023-03-05T05:40:47;101313.50;;;5.29;74.65
17785;BME280;9016;53.582;10.062;2023-03-05T05:43:15;101314.53;;;5.23;74.86
17785;BME280;9016;53.582;10.062;2023-03-05T05:45:44;101312.63;;;5.28;74.35
17785;BME280;9016;53.582;10.062;2023-03-05T05:48:12;101305.66;;;5.26;75.10
17785;BME280;9016;53.582;10.062;2023-03-05T05:50:40;101307.50;;;5.22;74.30
17785;BME280;9016;53.582;10.062;2023-03-05T05:53:08;101311.19;;;5.18;74.95
17785;BME280;9016;53.582;10.062;2023-03-05T05:55:38;101318.22;;;5.18;74.72
17785;BME280;9016;53.582;10.062;2023-03-05T05:58:06;101313.75;;;5.20;74.20
17785;BME280;9016;53.582;10.062;2023-03-05T06:00:34;101304.88;;;5.22;74.70
17785;BME280;9016;53.582;10.062;2023-03-05T06:03:04;101310.34;;;5.16;74.62
17785;BME280;9016;53.582;10.062;2023-03-05T06:05:32;101305.91;;;5.17;74.55
17785;BME280;9016;53.582;10.062;2023-03-05T06:08:00;101310.34;;;5.16;74.47
17785;BME280;9016;53.582;10.062;2023-03-05T06:10:28;101300.38;;;5.26;74.46
17785;BME280;9016;53.582;10.062;2023-03-05T06:12:56;101306.34;;;5.32;73.90
17785;BME280;9016;53.582;10.062;2023-03-05T06:15:24;101310.56;;;5.38;73.40
17785;BME280;9016;53.582;10.062;2023-03-05T06:17:52;101306.66;;;5.22;73.79
17785;BME280;9016;53.582;10.062;2023-03-05T06:20:21;101308.22;;;5.29;73.73
17785;BME280;9016;53.582;10.062;2023-03-05T06:22:49;101305.66;;;5.26;73.48
17785;BME280;9016;53.582;10.062;2023-03-05T06:25:17;101302.06;;;5.28;73.12
17785;BME280;9016;53.582;10.062;2023-03-05T06:27:45;101309.81;;;5.34;72.98
17785;BME280;9016;53.582;10.062;2023-03-05T06:30:13;101312.44;;;5.34;72.47
17785;BME280;9016;53.582;10.062;2023-03-05T06:32:41;101304.41;;;5.37;73.17
17785;BME280;9016;53.582;10.062;2023-03-05T06:35:09;101306.13;;;5.40;73.69
17785;BME280;9016;53.582;10.062;2023-03-05T06:37:39;101306.78;;;5.17;73.10
17785;BME280;9016;53.582;10.062;2023-03-05T06:40:08;101304.97;;;5.19;74.07
17785;BME280;9016;53.582;10.062;2023-03-05T06:42:36;101310.31;;;5.18;73.13
17785;BME280;9016;53.582;10.062;2023-03-05T06:45:05;101310.16;;;5.22;73.17
17785;BME280;9016;53.582;10.062;2023-03-05T06:47:33;101307.38;;;5.27;72.60
17785;BME280;9016;53.582;10.062;2023-03-05T06:50:02;101308.38;;;5.23;72.81
17785;BME280;9016;53.582;10.062;2023-03-05T06:52:30;101313.94;;;5.14;72.05
17785;BME280;9016;53.582;10.062;2023-03-05T06:54:59;101317.41;;;5.16;72.58
17785;BME280;9016;53.582;10.062;2023-03-05T06:57:27;101310.19;;;5.21;72.09
17785;BME280;9016;53.582;10.062;2023-03-05T06:59:55;101312.56;;;5.30;71.60
17785;BME280;9016;53.582;10.062;2023-03-05T07:02:23;101305.56;;;5.29;72.13
17785;BME280;9016;53.582;10.062;2023-03-05T07:04:52;101317.47;;;5.43;71.31
17785;BME280;9016;53.582;10.062;2023-03-05T07:07:20;101311.22;;;5.46;71.14
17785;BME280;9016;53.582;10.062;2023-03-05T07:09:47;101296.03;;;5.52;71.76
17785;BME280;9016;53.582;10.062;2023-03-05T07:12:19;101300.22;;;5.59;71.76
17785;BME280;9016;53.582;10.062;2023-03-05T07:14:47;101297.16;;;5.73;70.64
17785;BME280;9016;53.582;10.062;2023-03-05T07:17:16;101300.50;;;5.78;70.21
17785;BME280;9016;53.582;10.062;2023-03-05T07:19:44;101303.88;;;5.84;70.92
17785;BME280;9016;53.582;10.062;2023-03-05T07:22:11;101307.34;;;5.85;71.24
17785;BME280;9016;53.582;10.062;2023-03-05T07:24:39;101302.44;;;6.00;70.91
17785;BME280;9016;53.582;10.062;2023-03-05T07:27:07;101300.25;;;6.13;70.27
17785;BME280;9016;53.582;10.062;2023-03-05T07:29:37;101303.09;;;6.09;70.57
17785;BME280;9016;53.582;10.062;2023-03-05T07:32:05;101299.38;;;6.14;70.57
17785;BME280;9016;53.582;10.062;2023-03-05T07:34:33;101302.22;;;6.08;70.66
17785;BME280;9016;53.582;10.062;2023-03-05T07:37:01;101298.03;;;6.01;69.95
17785;BME280;9016;53.582;10.062;2023-03-05T07:39:29;101298.03;;;6.01;70.02
17785;BME280;9016;53.582;10.062;2023-03-05T07:41:57;101304.16;;;6.03;71.22
17785;BME280;9016;53.582;10.062;2023-03-05T07:44:25;101293.34;;;6.09;70.71
17785;BME280;9016;53.582;10.062;2023-03-05T07:46:54;101296.91;;;6.08;70.57
17785;BME280;9016;53.582;10.062;2023-03-05T07:49:23;101294.91;;;6.15;70.95
17785;BME280;9016;53.582;10.062;2023-03-05T07:51:51;101294.72;;;6.21;70.75
17785;BME280;9016;53.582;10.062;2023-03-05T07:54:19;101296.56;;;6.19;70.21
17785;BME280;9016;53.582;10.062;2023-03-05T07:56:47;101295.78;;;6.15;69.22
17785;BME280;9016;53.582;10.062;2023-03-05T07:59:14;101289.22;;;6.00;69.43
17785;BME280;9016;53.582;10.062;2023-03-05T08:01:42;101286.13;;;6.14;69.86
17785;BME280;9016;53.582;10.062;2023-03-05T08:04:13;101280.84;;;6.14;69.37
17785;BME280;9016;53.582;10.062;2023-03-05T08:06:41;101283.13;;;6.25;68.57
17785;BME280;9016;53.582;10.062;2023-03-05T08:09:09;101282.13;;;6.27;67.37
17785;BME280;9016;53.582;10.062;2023-03-05T08:11:38;101281.59;;;6.18;67.14
17785;BME280;9016;53.582;10.062;2023-03-05T08:14:06;101276.38;;;6.41;67.43
17785;BME280;9016;53.582;10.062;2023-03-05T08:16:34;101268.88;;;6.53;66.87
17785;BME280;9016;53.582;10.062;2023-03-05T08:19:02;101269.41;;;6.63;67.21
17785;BME280;9016;53.582;10.062;2023-03-05T08:21:33;101264.38;;;6.80;65.50
17785;BME280;9016;53.582;10.062;2023-03-05T08:24:02;101257.94;;;6.87;66.82
17785;BME280;9016;53.582;10.062;2023-03-05T08:26:32;101267.03;;;7.03;65.95
17785;BME280;9016;53.582;10.062;2023-03-05T08:29:01;101265.44;;;6.99;64.22
17785;BME280;9016;53.582;10.062;2023-03-05T08:31:30;101258.22;;;6.79;64.64
17785;BME280;9016;53.582;10.062;2023-03-05T08:34:00;101261.53;;;6.84;64.56
17785;BME280;9016;53.582;10.062;2023-03-05T08:36:28;101260.25;;;6.71;64.87
17785;BME280;9016;53.582;10.062;2023-03-05T08:38:58;101260.72;;;6.82;64.17
17785;BME280;9016;53.582;10.062;2023-03-05T08:41:26;101247.22;;;6.90;64.19
17785;BME280;9016;53.582;10.062;2023-03-05T08:43:54;101257.53;;;6.97;63.52
17785;BME280;9016;53.582;10.062;2023-03-05T08:46:22;101242.84;;;6.89;62.90
17785;BME280;9016;53.582;10.062;2023-03-05T08:48:50;101249.94;;;7.12;62.85
17785;BME280;9016;53.582;10.062;2023-03-05T08:51:21;101256.81;;;7.39;61.56
17785;BME280;9016;53.582;10.062;2023-03-05T08:53:51;101244.88;;;7.50;62.29
17785;BME280;9016;53.582;10.062;2023-03-05T08:56:21;101249.03;;;7.34;59.97
17785;BME280;9016;53.582;10.062;2023-03-05T08:58:50;101244.38;;;7.18;60.95
17785;BME280;9016;53.582;10.062;2023-03-05T09:01:18;101231.34;;;7.35;60.70
17785;BME280;9016;53.582;10.062;2023-03-05T09:03:48;101237.22;;;7.43;58.57
17785;BME280;9016;53.582;10.062;2023-03-05T09:06:16;101231.50;;;7.32;59.84
17785;BME280;9016;53.582;10.062;2023-03-05T09:08:44;101224.66;;;7.48;59.00
17785;BME280;9016;53.582;10.062;2023-03-05T09:11:12;101227.66;;;7.60;58.64
17785;BME280;9016;53.582;10.062;2023-03-05T09:13:43;101230.00;;;7.68;58.23
17785;BME280;9016;53.582;10.062;2023-03-05T09:16:13;101223.59;;;7.52;58.22
17785;BME280;9016;53.582;10.062;2023-03-05T09:18:42;101230.75;;;7.50;58.93
17785;BME280;9016;53.582;10.062;2023-03-05T09:21:12;101220.69;;;7.36;57.92
17785;BME280;9016;53.582;10.062;2023-03-05T09:23:40;101221.53;;;7.60;56.71
17785;BME280;9016;53.582;10.062;2023-03-05T09:26:10;101218.38;;;7.50;56.26
17785;BME280;9016;53.582;10.062;2023-03-05T09:28:39;101218.78;;;7.40;55.88
17785;BME280;9016;53.582;10.062;2023-03-05T09:31:08;101224.94;;;7.40;57.04
17785;BME280;9016;53.582;10.062;2023-03-05T09:33:38;101209.81;;;7.65;57.04
17785;BME280;9016;53.582;10.062;2023-03-05T09:36:16;101208.03;;;7.86;56.78
17785;BME280;9016;53.582;10.062;2023-03-05T09:38:45;101200.50;;;8.17;56.63
17785;BME280;9016;53.582;10.062;2023-03-05T09:41:17;101201.28;;;8.19;55.83
17785;BME280;9016;53.582;10.062;2023-03-05T09:43:55;101213.28;;;8.29;53.59
17785;BME280;9016;53.582;10.062;2023-03-05T09:46:34;101204.75;;;8.01;53.80
17785;BME280;9016;53.582;10.062;2023-03-05T09:49:15;101193.81;;;7.67;55.55
17785;BME280;9016;53.582;10.062;2023-03-05T09:51:47;101212.69;;;7.59;56.08
17785;BME280;9016;53.582;10.062;2023-03-05T09:54:19;101213.53;;;7.38;56.83
17785;BME280;9016;53.582;10.062;2023-03-05T09:56:52;101214.63;;;7.11;58.28
17785;BME280;9016;53.582;10.062;2023-03-05T09:59:29;101215.00;;;7.24;57.84
17785;BME280;9016;53.582;10.062;2023-03-05T10:02:04;101207.19;;;7.21;58.06
17785;BME280;9016;53.582;10.062;2023-03-05T10:04:41;101218.16;;;7.12;58.28
17785;BME280;9016;53.582;10.062;2023-03-05T10:07:15;101213.13;;;7.04;58.16
17785;BME280;9016;53.582;10.062;2023-03-05T10:09:48;101213.00;;;7.07;59.33
17785;BME280;9016;53.582;10.062;2023-03-05T10:12:25;101215.78;;;7.04;60.71
17785;BME280;9016;53.582;10.062;2023-03-05T10:14:54;101217.22;;;7.13;59.94
17785;BME280;9016;53.582;10.062;2023-03-05T10:20:53;101212.91;;;7.10;60.87
17785;BME280;9016;53.582;10.062;2023-03-05T10:23:29;101215.69;;;6.84;63.70
17785;BME280;9016;53.582;10.062;2023-03-05T10:26:03;101201.88;;;6.99;63.66
17785;BME280;9016;53.582;10.062;2023-03-05T10:28:42;101196.34;;;7.27;62.68
17785;BME280;9016;53.582;10.062;2023-03-05T10:31:28;101207.66;;;6.85;62.01
17785;BME280;9016;53.582;10.062;2023-03-05T10:34:38;101205.25;;;6.79;62.41
17785;BME280;9016;53.582;10.062;2023-03-05T10:37:23;101198.56;;;6.69;63.30
17785;BME280;9016;53.582;10.062;2023-03-05T10:40:01;101197.06;;;6.62;63.61
17785;BME280;9016;53.582;10.062;2023-03-05T10:42:43;101188.00;;;6.68;63.91
17785;BME280;9016;53.582;10.062;2023-03-05T10:45:16;101183.94;;;6.82;63.89
17785;BME280;9016;53.582;10.062;2023-03-05T10:47:49;101182.16;;;7.28;62.91
17785;BME280;9016;53.582;10.062;2023-03-05T10:50:23;101173.13;;;7.75;60.93
17785;BME280;9016;53.582;10.062;2023-03-05T10:53:05;101177.13;;;7.85;59.80
17785;BME280;9016;53.582;10.062;2023-03-05T10:55:37;101171.69;;;8.08;59.92
17785;BME280;9016;53.582;10.062;2023-03-05T10:58:10;101166.19;;;8.53;60.34
17785;BME280;9016;53.582;10.062;2023-03-05T11:00:38;101163.78;;;8.85;58.62
17785;BME280;9016;53.582;10.062;2023-03-05T11:03:10;101156.47;;;8.90;57.23
17785;BME280;9016;53.582;10.062;2023-03-05T11:05:47;101153.59;;;8.76;57.14
17785;BME280;9016;53.582;10.062;2023-03-05T11:08:30;101144.91;;;8.73;56.99
17785;BME280;9016;53.582;10.062;2023-03-05T11:11:04;101140.97;;;8.63;55.06
17785;BME280;9016;53.582;10.062;2023-03-05T11:13:35;101136.44;;;8.45;55.45
17785;BME280;9016;53.582;10.062;2023-03-05T11:16:06;101133.81;;;8.45;55.98
17785;BME280;9016;53.582;10.062;2023-03-05T11:18:40;101130.34;;;8.63;55.83
17785;BME280;9016;53.582;10.062;2023-03-05T11:21:11;101128.66;;;8.60;54.77
17785;BME280;9016;53.582;10.062;2023-03-05T11:24:07;101134.81;;;8.42;55.70
17785;BME280;9016;53.582;10.062;2023-03-05T11:27:20;101127.19;;;8.15;54.72
17785;BME280;9016;53.582;10.062;2023-03-05T11:31:18;101124.00;;;8.07;55.01
17785;BME280;9016;53.582;10.062;2023-03-05T11:33:38;101133.81;;;8.04;53.82
17785;BME280;9016;53.582;10.062;2023-03-05T11:36:21;101135.34;;;8.30;52.23
17785;BME280;9016;53.582;10.062;2023-03-05T11:41:37;101124.66;;;8.52;50.24
17785;BME280;9016;53.582;10.062;2023-03-05T11:44:11;101121.03;;;8.34;50.33
17785;BME280;9016;53.582;10.062;2023-03-05T11:46:43;101124.34;;;7.99;52.46
17785;BME280;9016;53.582;10.062;2023-03-05T11:49:15;101122.69;;;7.76;52.97
17785;BME280;9016;53.582;10.062;2023-03-05T11:51:52;101113.78;;;7.97;53.61
17785;BME280;9016;53.582;10.062;2023-03-05T11:54:29;101107.91;;;7.71;55.23
17785;BME280;9016;53.582;10.062;2023-03-05T11:57:01;101100.78;;;7.71;56.57
17785;BME280;9016;53.582;10.062;2023-03-05T11:59:33;101097.72;;;7.60;55.85
17785;BME280;9016;53.582;10.062;2023-03-05T12:02:02;101094.94;;;7.22;57.40
17785;BME280;9016;53.582;10.062;2023-03-05T12:04:46;101089.22;;;7.32;57.45
17785;BME280;9016;53.582;10.062;2023-03-05T12:07:19;101089.25;;;7.31;57.62
17785;BME280;9016;53.582;10.062;2023-03-05T12:09:50;101083.22;;;7.27;58.55
17785;BME280;9016;53.582;10.062;2023-03-05T12:12:31;101087.50;;;7.51;57.10
17785;BME280;9016;53.582;10.062;2023-03-05T12:15:23;101065.38;;;7.72;57.57
17785;BME280;9016;53.582;10.062;2023-03-05T12:17:58;101067.97;;;7.94;54.83
17785;BME280;9016;53.582;10.062;2023-03-05T12:20:42;101049.09;;;8.20;53.31
17785;BME280;9016;53.582;10.062;2023-03-05T12:26:55;101035.78;;;8.40;50.02
17785;BME280;9016;53.582;10.062;2023-03-05T12:29:41;101041.00;;;8.60;50.44
17785;BME280;9016;53.582;10.062;2023-03-05T12:35:41;101033.69;;;8.65;49.30
17785;BME280;9016;53.582;10.062;2023-03-05T12:38:39;101012.00;;;8.56;49.03
17785;BME280;9016;53.582;10.062;2023-03-05T12:41:55;101031.25;;;8.42;48.66
17785;BME280;9016;53.582;10.062;2023-03-05T12:44:42;101019.84;;;8.40;49.01
17785;BME280;9016;53.582;10.062;2023-03-05T12:47:19;101010.13;;;8.39;46.95
17785;BME280;9016;53.582;10.062;2023-03-05T12:49:51;101004.63;;;8.44;46.30
17785;BME280;9016;53.582;10.062;2023-03-05T12:52:32;101025.59;;;8.31;44.98
17785;BME280;9016;53.582;10.062;2023-03-05T12:55:18;100999.44;;;8.22;44.89
17785;BME280;9016;53.582;10.062;2023-03-05T12:58:10;101012.44;;;8.28;43.95
17785;BME280;9016;53.582;10.062;2023-03-05T13:08:25;101014.84;;;8.14;44.89
17785;BME280;9016;53.582;10.062;2023-03-05T13:11:27;101014.53;;;8.01;46.30
17785;BME280;9016;53.582;10.062;2023-03-05T13:14:35;101009.81;;;8.08;45.14
17785;BME280;9016;53.582;10.062;2023-03-05T13:18:11;100995.63;;;8.09;46.51
17785;BME280;9016;53.582;10.062;2023-03-05T13:22:02;100998.44;;;7.86;47.26
17785;BME280;9016;53.582;10.062;2023-03-05T13:32:22;100991.28;;;7.88;48.54
17785;BME280;9016;53.582;10.062;2023-03-05T13:35:00;100982.00;;;7.98;48.79
17785;BME280;9016;53.582;10.062;2023-03-05T13:37:56;100967.41;;;7.88;48.92
17785;BME280;9016;53.582;10.062;2023-03-05T13:45:35;100955.78;;;8.29;48.15
17785;BME280;9016;53.582;10.062;2023-03-05T13:49:19;100953.97;;;8.48;47.97
17785;BME280;9016;53.582;10.062;2023-03-05T13:51:49;100947.19;;;8.60;48.58
17785;BME280;9016;53.582;10.062;2023-03-05T13:54:49;100952.41;;;8.44;46.87
17785;BME280;9016;53.582;10.062;2023-03-05T14:01:42;100944.28;;;8.29;48.24
17785;BME280;9016;53.582;10.062;2023-03-05T14:08:58;100939.56;;;8.35;47.71
17785;BME280;9016;53.582;10.062;2023-03-05T14:16:09;100949.47;;;8.32;50.84